Time;durP1;ratioP1;P1;durP2;ratioP2;P2;SDS_P1;SDS_P2;PMS_P1;PMS_P2;Temp;Humidity;BMP_temperature;BMP_pressure;BME280_temperature;BME280_humidity;BME280_pressure;Samples;Min_cycle;Max_cycle;Signal;HPM_P1;HPM_P2
2022/10/21 00:01:40;;;;;;;;;;;;;;;;;;5019683;28;19933;-80
2022/10/21 00:04:07;;;;;;;;;;;;;;;;;;5036952;28;20454;-79
2022/10/21 00:06:33;;;;;;;;;;;;;;;;;;5037583;28;20459;-79
2022/10/21 00:09:00;;;;;;;;;;;;;;;;;;5036242;28;20396;-78
2022/10/21 00:11:26;;;;;;;;;;;;;;;;;;5036698;28;20415;-79
2022/10/21 00:13:53;;;;;;;;;;;;;;;;;;5039645;28;19968;-77
2022/10/21 00:16:19;;;;;;;;;;;;;;;;;;5037611;28;19971;-77
2022/10/21 00:18:47;;;;;;;;;;;;;;;;;;5035739;28;20012;-79
2022/10/21 00:21:15;;;;;;;;;;;;;;;;;;5043150;28;19948;-78
2022/10/21 00:23:42;;;;;;;;;;;;;;;;;;5047571;28;19948;-77
2022/10/21 00:26:08;;;;;;;;;;;;;;;;;;5047737;28;19943;-77
2022/10/21 00:28:35;;;;;;;;;;;;;;;;;;5041734;28;20300;-78
2022/10/21 00:31:02;;;;;;;;;;;;;;;;;;5026428;28;19965;-78
2022/10/21 00:33:28;;;;;;;;;;;;;;;;;;5031913;28;19965;-78
2022/10/21 00:36:01;;;;;;;;;;;;;;;;;;5029212;28;19976;-77
2022/10/21 00:38:28;;;;;;;;;;;;;;;;;;5023965;28;19926;-77
2022/10/21 00:40:55;;;;;;;;;;;;;;;;;;5025673;28;19972;-77
2022/10/21 00:43:21;;;;;;;;;;;;;;;;;;5020219;28;20438;-77
2022/10/21 00:45:49;;;;;;;;;;;;;;;;;;5020134;28;19980;-78
2022/10/21 00:48:19;;;;;;;;;;;;;;;;;;5021650;28;20004;-77
2022/10/21 00:50:48;;;;;;;;;;;;;;;;;;5020619;28;19932;-77
2022/10/21 00:53:16;;;;;;;;;;;;;;;;;;5021622;28;19976;-77
2022/10/21 00:55:45;;;;;;;;;;;;;;;;;;5015675;28;19980;-77
2022/10/21 00:58:12;;;;;;;;;;;;;;;;;;5013419;28;19932;-76
2022/10/21 01:00:38;;;;;;;;;;;;;;;;;;5024908;28;19926;-77
2022/10/21 01:03:05;;;;;;;;;;;;;;;;;;5030760;28;20363;-77
2022/10/21 01:05:31;;;;;;;;;;;;;;;;;;5035560;28;19983;-77
2022/10/21 01:07:58;;;;;;;;;;;;;;;;;;5044109;28;19924;-77
2022/10/21 01:10:26;;;;;;;;;;;;;;;;;;5039096;28;20384;-77
2022/10/21 01:12:58;;;;;;;;;;;;;;;;;;5036886;28;19931;-77
2022/10/21 01:15:25;;;;;;;;;;;;;;;;;;5034558;28;19976;-77
2022/10/21 01:17:56;;;;;;;;;;;;;;;;;;5032606;28;19968;-77
2022/10/21 01:20:37;;;;;;;;;;;;;;;;;;5035576;28;19976;-79
2022/10/21 01:23:15;;;;;;;;;;;;;;;;;;5033299;28;19925;-77
2022/10/21 01:25:56;;;;;;;;;;;;;;;;;;5033437;28;19925;-77
2022/10/21 01:28:27;;;;;;;;;;;;;;;;;;5032475;28;19956;-77
2022/10/21 01:30:57;;;;;;;;;;;;;;;;;;5033103;28;19956;-77
2022/10/21 01:33:38;;;;;;;;;;;;;;;;;;5033431;28;19991;-77
2022/10/21 01:36:09;;;;;;;;;;;;;;;;;;5032837;28;19933;-77
2022/10/21 01:38:38;;;;;;;;;;;;;;;;;;5032635;28;19969;-77
2022/10/21 01:41:09;;;;;;;;;;;;;;;;;;5032649;28;19929;-77
2022/10/21 01:43:39;;;;;;;;;;;;;;;;;;5032944;28;20008;-77
2022/10/21 01:46:11;;;;;;;;;;;;;;;;;;5033592;28;19968;-77
2022/10/21 01:48:41;;;;;;;;;;;;;;;;;;5032215;28;20019;-77
2022/10/21 01:51:08;;;;;;;;;;;;;;;;;;5032845;28;20024;-77
2022/10/21 01:53:38;;;;;;;;;;;;;;;;;;5032167;28;20348;-77
2022/10/21 01:56:05;;;;;;;;;;;;;;;;;;5032782;28;19972;-77
2022/10/21 01:58:34;;;;;;;;;;;;;;;;;;5032356;28;19968;-77
2022/10/21 02:01:01;;;;;;;;;;;;;;;;;;5032409;28;19932;-78
2022/10/21 02:03:31;;;;;;;;;;;;;;;;;;5021412;28;19926;-78
2022/10/21 02:05:58;;;;;;;;;;;;;;;;;;5012871;28;19973;-77
2022/10/21 02:08:24;;;;;;;;;;;;;;;;;;5012478;28;19925;-78
2022/10/21 02:10:52;;;;;;;;;;;;;;;;;;5013132;28;19925;-78
2022/10/21 02:13:22;;;;;;;;;;;;;;;;;;5012907;28;19972;-77
2022/10/21 02:15:50;;;;;;;;;;;;;;;;;;5012846;28;20020;-76
2022/10/21 02:18:21;;;;;;;;;;;;;;;;;;5012260;28;19955;-77
2022/10/21 02:20:50;;;;;;;;;;;;;;;;;;5012662;28;20344;-76
2022/10/21 02:23:19;;;;;;;;;;;;;;;;;;5014282;28;19932;-76
2022/10/21 02:25:46;;;;;;;;;;;;;;;;;;5016388;28;19969;-77
2022/10/21 02:28:13;;;;;;;;;;;;;;;;;;5015745;28;19932;-77
2022/10/21 02:30:42;;;;;;;;;;;;;;;;;;5016222;28;19926;-76
2022/10/21 02:33:11;;;;;;;;;;;;;;;;;;5016417;28;19926;-77
2022/10/21 02:35:39;;;;;;;;;;;;;;;;;;5015903;28;19980;-77
2022/10/21 02:38:10;;;;;;;;;;;;;;;;;;5015965;28;20365;-77
2022/10/21 02:40:37;;;;;;;;;;;;;;;;;;5015951;28;20008;-77
2022/10/21 02:43:06;;;;;;;;;;;;;;;;;;5016266;28;20016;-77
2022/10/21 02:45:33;;;;;;;;;;;;;;;;;;5016160;28;19983;-76
2022/10/21 02:48:00;;;;;;;;;;;;;;;;;;5015629;28;20404;-76
2022/10/21 02:50:26;;;;;;;;;;;;;;;;;;5015625;28;19926;-77
2022/10/21 02:52:53;;;;;;;;;;;;;;;;;;5016067;28;19925;-76
2022/10/21 02:55:20;;;;;;;;;;;;;;;;;;5015622;28;19925;-76
2022/10/21 02:57:47;;;;;;;;;;;;;;;;;;5015437;28;19972;-76
2022/10/21 03:00:14;;;;;;;;;;;;;;;;;;5016059;28;20008;-76
2022/10/21 03:02:40;;;;;;;;;;;;;;;;;;5020374;28;19925;-77
2022/10/21 03:05:08;;;;;;;;;;;;;;;;;;5035502;28;20012;-77
2022/10/21 03:07:34;;;;;;;;;;;;;;;;;;5046470;28;19925;-77
2022/10/21 03:10:01;;;;;;;;;;;;;;;;;;5048648;28;19975;-78
2022/10/21 03:12:28;;;;;;;;;;;;;;;;;;5048563;28;19948;-76
2022/10/21 03:14:55;;;;;;;;;;;;;;;;;;5039678;28;20390;-76
2022/10/21 03:17:21;;;;;;;;;;;;;;;;;;5035708;28;20343;-77
2022/10/21 03:19:48;;;;;;;;;;;;;;;;;;5034953;28;20007;-77
2022/10/21 03:22:14;;;;;;;;;;;;;;;;;;5034732;28;19972;-77
2022/10/21 03:24:41;;;;;;;;;;;;;;;;;;5034408;28;20052;-77
2022/10/21 03:27:07;;;;;;;;;;;;;;;;;;5034440;28;19924;-77
2022/10/21 03:29:35;;;;;;;;;;;;;;;;;;5034475;28;20028;-77
2022/10/21 03:32:01;;;;;;;;;;;;;;;;;;5034706;28;20020;-77
2022/10/21 03:34:28;;;;;;;;;;;;;;;;;;5033892;28;19947;-77
2022/10/21 03:36:54;;;;;;;;;;;;;;;;;;5034179;28;20341;-77
2022/10/21 03:39:21;;;;;;;;;;;;;;;;;;5034278;28;19983;-77
2022/10/21 03:41:47;;;;;;;;;;;;;;;;;;5034463;28;19971;-76
2022/10/21 03:44:13;;;;;;;;;;;;;;;;;;5034493;28;20012;-76
2022/10/21 03:46:41;;;;;;;;;;;;;;;;;;5034985;28;20016;-76
2022/10/21 03:49:08;;;;;;;;;;;;;;;;;;5035730;28;19972;-77
2022/10/21 03:51:35;;;;;;;;;;;;;;;;;;5034492;28;19976;-77
2022/10/21 03:54:01;;;;;;;;;;;;;;;;;;5035049;28;20011;-77
2022/10/21 03:56:28;;;;;;;;;;;;;;;;;;5035169;28;20013;-76
2022/10/21 03:58:54;;;;;;;;;;;;;;;;;;5034068;28;19925;-77
2022/10/21 04:01:21;;;;;;;;;;;;;;;;;;5034044;28;20028;-77
2022/10/21 04:03:49;;;;;;;;;;;;;;;;;;5020127;28;20459;-77
2022/10/21 04:06:15;;;;;;;;;;;;;;;;;;5014087;28;19925;-76
2022/10/21 04:08:41;;;;;;;;;;;;;;;;;;5014445;28;19964;-77
2022/10/21 04:11:08;;;;;;;;;;;;;;;;;;5014698;28;19980;-77
2022/10/21 04:13:34;;;;;;;;;;;;;;;;;;5014768;28;20353;-77
2022/10/21 04:16:02;;;;;;;;;;;;;;;;;;5014301;28;20402;-77
2022/10/21 04:18:28;;;;;;;;;;;;;;;;;;5014359;28;20011;-77
2022/10/21 04:20:56;;;;;;;;;;;;;;;;;;5016136;28;19980;-78
2022/10/21 04:23:23;;;;;;;;;;;;;;;;;;5016674;28;19972;-78
2022/10/21 04:25:49;;;;;;;;;;;;;;;;;;5016595;28;19925;-77
2022/10/21 04:28:16;;;;;;;;;;;;;;;;;;5014036;28;20018;-78
2022/10/21 04:30:42;;;;;;;;;;;;;;;;;;5013897;28;20343;-77
2022/10/21 04:33:09;;;;;;;;;;;;;;;;;;5013652;28;20019;-77
2022/10/21 04:35:35;;;;;;;;;;;;;;;;;;5013851;28;20024;-79
2022/10/21 04:38:03;;;;;;;;;;;;;;;;;;5013012;28;19965;-78
2022/10/21 04:40:29;;;;;;;;;;;;;;;;;;5016304;28;19960;-78
2022/10/21 04:42:56;;;;;;;;;;;;;;;;;;5019562;28;19972;-78
2022/10/21 04:45:22;;;;;;;;;;;;;;;;;;5016362;28;19926;-77
2022/10/21 04:47:49;;;;;;;;;;;;;;;;;;5016274;28;19925;-80
2022/10/21 04:50:15;;;;;;;;;;;;;;;;;;5018016;28;20003;-79
2022/10/21 04:52:42;;;;;;;;;;;;;;;;;;5015248;28;19926;-78
2022/10/21 04:55:10;;;;;;;;;;;;;;;;;;5015407;28;20352;-78
2022/10/21 04:57:36;;;;;;;;;;;;;;;;;;5013954;28;20004;-79
2022/10/21 05:00:04;;;;;;;;;;;;;;;;;;5014679;28;20016;-78
2022/10/21 05:02:30;;;;;;;;;;;;;;;;;;5020848;28;19925;-78
2022/10/21 05:04:56;;;;;;;;;;;;;;;;;;5044488;28;19985;-76
2022/10/21 05:07:23;;;;;;;;;;;;;;;;;;5036734;28;20336;-77
2022/10/21 05:09:49;;;;;;;;;;;;;;;;;;5033426;28;19925;-77
2022/10/21 05:12:17;;;;;;;;;;;;;;;;;;5033265;28;20400;-77
2022/10/21 05:14:44;;;;;;;;;;;;;;;;;;5033016;28;19971;-77
2022/10/21 05:17:10;;;;;;;;;;;;;;;;;;5033254;28;20028;-77
2022/10/21 05:19:37;;;;;;;;;;;;;;;;;;5032974;28;19980;-77
2022/10/21 05:22:03;;;;;;;;;;;;;;;;;;5033465;28;19972;-77
2022/10/21 05:24:29;;;;;;;;;;;;;;;;;;5032893;28;19972;-78
2022/10/21 05:26:56;;;;;;;;;;;;;;;;;;5032734;28;19989;-78
2022/10/21 05:29:24;;;;;;;;;;;;;;;;;;5032684;28;20011;-77
2022/10/21 05:31:50;;;;;;;;;;;;;;;;;;5032123;28;19976;-78
2022/10/21 05:34:17;;;;;;;;;;;;;;;;;;5032975;28;19925;-77
2022/10/21 05:36:43;;;;;;;;;;;;;;;;;;5032774;28;20023;-78
2022/10/21 05:39:10;;;;;;;;;;;;;;;;;;5031915;28;19925;-77
2022/10/21 05:41:36;;;;;;;;;;;;;;;;;;5012701;28;20368;-77
2022/10/21 05:44:03;;;;;;;;;;;;;;;;;;5013093;28;19965;-77
2022/10/21 05:46:31;;;;;;;;;;;;;;;;;;5012908;28;19926;-78
2022/10/21 05:48:57;;;;;;;;;;;;;;;;;;5012363;28;19968;-77
2022/10/21 05:51:25;;;;;;;;;;;;;;;;;;5012677;28;20334;-77
2022/10/21 05:53:52;;;;;;;;;;;;;;;;;;5012495;28;19972;-76
2022/10/21 05:56:18;;;;;;;;;;;;;;;;;;5012527;28;20410;-76
2022/10/21 05:58:45;;;;;;;;;;;;;;;;;;5014364;28;19953;-77
2022/10/21 06:01:11;;;;;;;;;;;;;;;;;;5016267;28;20025;-77
2022/10/21 06:03:39;;;;;;;;;;;;;;;;;;5028857;28;19925;-77
2022/10/21 06:06:07;;;;;;;;;;;;;;;;;;5036905;28;19987;-78
2022/10/21 06:08:34;;;;;;;;;;;;;;;;;;5036498;28;20388;-77
2022/10/21 06:11:01;;;;;;;;;;;;;;;;;;5051686;28;19921;-77
2022/10/21 06:13:29;;;;;;;;;;;;;;;;;;5050860;28;20171;-77
2022/10/21 06:15:55;;;;;;;;;;;;;;;;;;5056211;28;19984;-78
2022/10/21 06:18:22;;;;;;;;;;;;;;;;;;5039024;28;19932;-78
2022/10/21 06:20:50;;;;;;;;;;;;;;;;;;5036371;28;20020;-77
2022/10/21 06:23:16;;;;;;;;;;;;;;;;;;5036135;28;19972;-78
2022/10/21 06:25:43;;;;;;;;;;;;;;;;;;5036438;28;20028;-77
2022/10/21 06:28:09;;;;;;;;;;;;;;;;;;5036167;28;20459;-77
2022/10/21 06:30:36;;;;;;;;;;;;;;;;;;5036608;28;20020;-78
2022/10/21 06:33:02;;;;;;;;;;;;;;;;;;5036152;28;19936;-79
2022/10/21 06:35:29;;;;;;;;;;;;;;;;;;5036205;28;19983;-78
2022/10/21 06:37:57;;;;;;;;;;;;;;;;;;5037451;28;20011;-78
2022/10/21 06:40:23;;;;;;;;;;;;;;;;;;5037961;28;20533;-78
2022/10/21 06:42:50;;;;;;;;;;;;;;;;;;5036790;28;19964;-78
2022/10/21 06:45:16;;;;;;;;;;;;;;;;;;5035905;28;20351;-78
2022/10/21 06:47:43;;;;;;;;;;;;;;;;;;5035980;28;19973;-78
2022/10/21 06:50:10;;;;;;;;;;;;;;;;;;5035679;28;20020;-78
2022/10/21 06:52:37;;;;;;;;;;;;;;;;;;5035949;28;19929;-78
2022/10/21 06:55:05;;;;;;;;;;;;;;;;;;5035608;28;20316;-77
2022/10/21 06:57:32;;;;;;;;;;;;;;;;;;5035155;28;20020;-77
2022/10/21 06:59:59;;;;;;;;;;;;;;;;;;5035589;28;20027;-78
2022/10/21 07:02:25;;;;;;;;;;;;;;;;;;5033508;28;20053;-77
2022/10/21 07:04:52;;;;;;;;;;;;;;;;;;5016051;28;19976;-77
2022/10/21 07:07:19;;;;;;;;;;;;;;;;;;5015737;28;20416;-77
2022/10/21 07:09:45;;;;;;;;;;;;;;;;;;5014753;28;19930;-78
2022/10/21 07:12:13;;;;;;;;;;;;;;;;;;5016346;28;20296;-78
2022/10/21 07:14:40;;;;;;;;;;;;;;;;;;5016290;28;20312;-77
2022/10/21 07:17:06;;;;;;;;;;;;;;;;;;5025168;28;19994;-75
2022/10/21 07:19:33;;;;;;;;;;;;;;;;;;5028441;28;19937;-76
2022/10/21 07:22:00;;;;;;;;;;;;;;;;;;5031566;28;19929;-77
2022/10/21 07:24:26;;;;;;;;;;;;;;;;;;5026066;28;19930;-77
2022/10/21 07:26:53;;;;;;;;;;;;;;;;;;5029218;28;19964;-77
2022/10/21 07:29:21;;;;;;;;;;;;;;;;;;5033146;28;20127;-76
2022/10/21 07:31:47;;;;;;;;;;;;;;;;;;5020584;28;20023;-77
2022/10/21 07:34:14;;;;;;;;;;;;;;;;;;5024328;28;19957;-77
2022/10/21 07:36:43;;;;;;;;;;;;;;;;;;5026219;28;19961;-77
2022/10/21 07:39:10;;;;;;;;;;;;;;;;;;5023805;28;19977;-76
2022/10/21 07:41:38;;;;;;;;;;;;;;;;;;5022985;28;19979;-76
2022/10/21 07:44:05;;;;;;;;;;;;;;;;;;5025110;28;19933;-77
2022/10/21 07:46:33;;;;;;;;;;;;;;;;;;5025076;28;19925;-77
2022/10/21 07:49:00;;;;;;;;;;;;;;;;;;5026798;28;19933;-78
2022/10/21 07:51:26;;;;;;;;;;;;;;;;;;5030932;28;19932;-80
2022/10/21 07:53:54;;;;;;;;;;;;;;;;;;5027975;28;19926;-77
2022/10/21 07:56:22;;;;;;;;;;;;;;;;;;5027290;28;19948;-77
2022/10/21 07:58:50;;;;;;;;;;;;;;;;;;5030490;28;19932;-77
2022/10/21 08:01:18;;;;;;;;;;;;;;;;;;5037385;28;19925;-77
2022/10/21 08:03:46;;;;;;;;;;;;;;;;;;5035883;28;19913;-77
2022/10/21 08:06:14;;;;;;;;;;;;;;;;;;5026562;28;19960;-78
2022/10/21 08:08:40;;;;;;;;;;;;;;;;;;5027608;28;19948;-77
2022/10/21 08:11:08;;;;;;;;;;;;;;;;;;5022126;28;20418;-78
2022/10/21 08:13:34;;;;;;;;;;;;;;;;;;5018133;28;19929;-78
2022/10/21 08:16:04;;;;;;;;;;;;;;;;;;5018127;28;20422;-77
2022/10/21 08:18:31;;;;;;;;;;;;;;;;;;5017591;28;20474;-77
2022/10/21 08:20:59;;;;;;;;;;;;;;;;;;5017586;28;19983;-77
2022/10/21 08:23:26;;;;;;;;;;;;;;;;;;5018549;28;19975;-77
2022/10/21 08:25:53;;;;;;;;;;;;;;;;;;5017840;28;20012;-77
2022/10/21 08:28:21;;;;;;;;;;;;;;;;;;5016665;28;20210;-77
2022/10/21 08:30:47;;;;;;;;;;;;;;;;;;5016464;28;20024;-77
2022/10/21 08:33:14;;;;;;;;;;;;;;;;;;5015468;28;20476;-77
2022/10/21 08:35:42;;;;;;;;;;;;;;;;;;5015056;28;20024;-77
2022/10/21 08:38:10;;;;;;;;;;;;;;;;;;5014311;28;20032;-78
2022/10/21 08:40:38;;;;;;;;;;;;;;;;;;5013340;28;19964;-77
2022/10/21 08:43:08;;;;;;;;;;;;;;;;;;5014299;28;20012;-77
2022/10/21 08:45:42;;;;;;;;;;;;;;;;;;5012969;28;19929;-77
2022/10/21 08:48:13;;;;;;;;;;;;;;;;;;5013498;28;20605;-77
2022/10/21 08:50:41;;;;;;;;;;;;;;;;;;5013923;28;20020;-77
2022/10/21 08:53:12;;;;;;;;;;;;;;;;;;5013048;28;19984;-77
2022/10/21 08:55:40;;;;;;;;;;;;;;;;;;5013707;28;19956;-78
2022/10/21 08:58:11;;;;;;;;;;;;;;;;;;5014146;28;19926;-77
2022/10/21 09:00:39;;;;;;;;;;;;;;;;;;5014072;28;19949;-78
2022/10/21 09:03:11;;;;;;;;;;;;;;;;;;5021363;28;20011;-78
2022/10/21 09:05:54;;;;;;;;;;;;;;;;;;5034253;28;20019;-77
2022/10/21 09:08:25;;;;;;;;;;;;;;;;;;5032806;28;19968;-79
2022/10/21 09:10:56;;;;;;;;;;;;;;;;;;5033160;28;19929;-79
2022/10/21 09:13:28;;;;;;;;;;;;;;;;;;5033428;28;20512;-77
2022/10/21 09:15:59;;;;;;;;;;;;;;;;;;5032980;28;19961;-79
2022/10/21 09:18:31;;;;;;;;;;;;;;;;;;5032524;28;19961;-79
2022/10/21 09:21:04;;;;;;;;;;;;;;;;;;5033301;28;20580;-77
2022/10/21 09:23:51;;;;;;;;;;;;;;;;;;5033403;28;19925;-78
2022/10/21 09:26:27;;;;;;;;;;;;;;;;;;5027172;28;20230;-78
2022/10/21 09:28:53;;;;;;;;;;;;;;;;;;5032240;28;20024;-78
2022/10/21 09:31:21;;;;;;;;;;;;;;;;;;5032946;28;19929;-78
2022/10/21 09:33:49;;;;;;;;;;;;;;;;;;5031380;28;19972;-78
2022/10/21 09:36:18;;;;;;;;;;;;;;;;;;5032218;28;19948;-78
2022/10/21 09:38:46;;;;;;;;;;;;;;;;;;5031654;28;20303;-78
2022/10/21 09:41:16;;;;;;;;;;;;;;;;;;5032577;28;20016;-77
2022/10/21 09:43:44;;;;;;;;;;;;;;;;;;5032365;28;19987;-78
2022/10/21 09:46:11;;;;;;;;;;;;;;;;;;5032263;28;19925;-77
2022/10/21 09:48:41;;;;;;;;;;;;;;;;;;5031456;28;19925;-77
2022/10/21 09:51:11;;;;;;;;;;;;;;;;;;5032152;28;19931;-78
2022/10/21 09:53:40;;;;;;;;;;;;;;;;;;5032746;28;19925;-78
2022/10/21 09:56:11;;;;;;;;;;;;;;;;;;5032322;28;20392;-78
2022/10/21 09:58:46;;;;;;;;;;;;;;;;;;5032618;28;19968;-78
2022/10/21 10:01:16;;;;;;;;;;;;;;;;;;5032808;28;19932;-78
2022/10/21 10:03:44;;;;;;;;;;;;;;;;;;5017997;28;19925;-79
2022/10/21 10:06:11;;;;;;;;;;;;;;;;;;5012816;28;19926;-78
2022/10/21 10:08:38;;;;;;;;;;;;;;;;;;5001852;28;19984;-79
2022/10/21 10:11:11;;;;;;;;;;;;;;;;;;4994973;28;19925;-77
2022/10/21 10:13:39;;;;;;;;;;;;;;;;;;4993703;28;19926;-78
2022/10/21 10:16:15;;;;;;;;;;;;;;;;;;4993371;28;20028;-78
2022/10/21 10:18:42;;;;;;;;;;;;;;;;;;4992751;28;19926;-78
2022/10/21 10:21:10;;;;;;;;;;;;;;;;;;4993417;28;20004;-77
2022/10/21 10:23:42;;;;;;;;;;;;;;;;;;4993256;28;19981;-78
2022/10/21 10:26:09;;;;;;;;;;;;;;;;;;4993424;28;19926;-79
2022/10/21 10:28:35;;;;;;;;;;;;;;;;;;4993434;28;19933;-79
2022/10/21 10:31:02;;;;;;;;;;;;;;;;;;4993734;28;19929;-78
2022/10/21 10:33:31;;;;;;;;;;;;;;;;;;4994120;28;19926;-79
2022/10/21 10:35:59;;;;;;;;;;;;;;;;;;4993630;28;19988;-78
2022/10/21 10:38:27;;;;;;;;;;;;;;;;;;4992493;28;19980;-78
2022/10/21 10:40:53;;;;;;;;;;;;;;;;;;4992965;28;19925;-79
2022/10/21 10:43:24;;;;;;;;;;;;;;;;;;4992742;28;19926;-79
2022/10/21 10:45:53;;;;;;;;;;;;;;;;;;4995868;28;19925;-78
2022/10/21 10:48:21;;;;;;;;;;;;;;;;;;4996940;28;19930;-79
2022/10/21 10:50:49;;;;;;;;;;;;;;;;;;4996527;28;20020;-79
2022/10/21 10:53:37;;;;;;;;;;;;;;;;;;4996909;28;20021;-79
2022/10/21 10:56:12;;;;;;;;;;;;;;;;;;4991912;28;19934;-78
2022/10/21 10:58:41;;;;;;;;;;;;;;;;;;4997317;28;19961;-78
2022/10/21 11:01:11;;;;;;;;;;;;;;;;;;4997142;28;20425;-78
2022/10/21 11:03:41;;;;;;;;;;;;;;;;;;5022309;28;20351;-78
2022/10/21 11:06:15;;;;;;;;;;;;;;;;;;5042992;28;19952;-77
2022/10/21 11:08:43;;;;;;;;;;;;;;;;;;5043897;28;19925;-77
2022/10/21 11:11:12;;;;;;;;;;;;;;;;;;5043215;28;19957;-77
2022/10/21 11:13:39;;;;;;;;;;;;;;;;;;5038169;28;19976;-78
2022/10/21 11:16:11;;;;;;;;;;;;;;;;;;5035151;28;20381;-78
2022/10/21 11:18:38;;;;;;;;;;;;;;;;;;5034528;28;19925;-78
2022/10/21 11:21:07;;;;;;;;;;;;;;;;;;5035426;28;20008;-78
2022/10/21 11:23:47;;;;;;;;;;;;;;;;;;5035786;28;19929;-77
2022/10/21 11:26:18;;;;;;;;;;;;;;;;;;5035291;28;20372;-78
2022/10/21 11:28:48;;;;;;;;;;;;;;;;;;5034864;28;19947;-78
2022/10/21 11:31:22;;;;;;;;;;;;;;;;;;5036113;28;19989;-78
2022/10/21 11:33:51;;;;;;;;;;;;;;;;;;5035757;28;20028;-78
2022/10/21 11:36:22;;;;;;;;;;;;;;;;;;5038453;28;20588;-77
2022/10/21 11:39:02;;;;;;;;;;;;;;;;;;5037785;28;20000;-79
2022/10/21 11:41:32;;;;;;;;;;;;;;;;;;5038691;28;19925;-78
2022/10/21 11:44:05;;;;;;;;;;;;;;;;;;5043854;28;19925;-78
2022/10/21 11:46:43;;;;;;;;;;;;;;;;;;5039097;28;19964;-79
2022/10/21 11:49:18;;;;;;;;;;;;;;;;;;5039379;28;19989;-78
2022/10/21 11:51:48;;;;;;;;;;;;;;;;;;5036580;28;19925;-77
2022/10/21 11:54:40;;;;;;;;;;;;;;;;;;5034802;28;19935;-78
2022/10/21 11:57:09;;;;;;;;;;;;;;;;;;5034015;28;19977;-78
2022/10/21 11:59:45;;;;;;;;;;;;;;;;;;5033468;28;20360;-78
2022/10/21 12:02:16;;;;;;;;;;;;;;;;;;5034254;28;20027;-78
2022/10/21 12:04:48;;;;;;;;;;;;;;;;;;5015141;28;20016;-78
2022/10/21 12:07:24;;;;;;;;;;;;;;;;;;5016690;28;19984;-82
2022/10/21 12:09:55;;;;;;;;;;;;;;;;;;5013515;28;20369;-77
2022/10/21 12:12:22;;;;;;;;;;;;;;;;;;5013781;28;20012;-77
2022/10/21 12:14:52;;;;;;;;;;;;;;;;;;5016147;28;20349;-78
2022/10/21 12:17:19;;;;;;;;;;;;;;;;;;5020294;28;19981;-77
2022/10/21 12:19:47;;;;;;;;;;;;;;;;;;5022187;28;19926;-77
2022/10/21 12:22:13;;;;;;;;;;;;;;;;;;5018128;28;19932;-77
2022/10/21 12:24:43;;;;;;;;;;;;;;;;;;5013378;28;20403;-76
2022/10/21 12:27:15;;;;;;;;;;;;;;;;;;5016663;28;19976;-77
2022/10/21 12:29:48;;;;;;;;;;;;;;;;;;5015670;28;20012;-76
2022/10/21 12:32:19;;;;;;;;;;;;;;;;;;5020738;28;20431;-78
2022/10/21 12:34:46;;;;;;;;;;;;;;;;;;5018617;28;19941;-78
2022/10/21 12:37:27;;;;;;;;;;;;;;;;;;5018412;28;19980;-78
2022/10/21 12:40:08;;;;;;;;;;;;;;;;;;5018383;28;20443;-79
2022/10/21 12:42:36;;;;;;;;;;;;;;;;;;5018964;28;19936;-78
2022/10/21 12:45:02;;;;;;;;;;;;;;;;;;5018858;28;19993;-79
2022/10/21 12:47:30;;;;;;;;;;;;;;;;;;5018685;28;20436;-79
2022/10/21 12:50:04;;;;;;;;;;;;;;;;;;5027941;28;20015;-79
2022/10/21 12:52:31;;;;;;;;;;;;;;;;;;5039412;28;19979;-78
2022/10/21 12:54:59;;;;;;;;;;;;;;;;;;5040228;28;20438;-78
2022/10/21 12:57:27;;;;;;;;;;;;;;;;;;5041203;28;19988;-78
2022/10/21 13:00:08;;;;;;;;;;;;;;;;;;5042200;28;20478;-78
2022/10/21 13:02:55;;;;;;;;;;;;;;;;;;5034625;28;20020;-79
2022/10/21 13:05:56;;;;;;;;;;;;;;;;;;5018232;28;19949;-79
2022/10/21 13:08:26;;;;;;;;;;;;;;;;;;5016195;28;20024;-78
2022/10/21 13:11:07;;;;;;;;;;;;;;;;;;5018483;28;19973;-78
2022/10/21 13:13:34;;;;;;;;;;;;;;;;;;5014987;28;19991;-78
2022/10/21 13:16:17;;;;;;;;;;;;;;;;;;5013821;28;20365;-79
2022/10/21 13:18:55;;;;;;;;;;;;;;;;;;5021283;28;19925;-79
2022/10/21 13:21:22;;;;;;;;;;;;;;;;;;5019108;28;20019;-79
2022/10/21 13:23:51;;;;;;;;;;;;;;;;;;5023780;28;19980;-78
2022/10/21 13:26:23;;;;;;;;;;;;;;;;;;5019938;28;19976;-81
2022/10/21 13:29:00;;;;;;;;;;;;;;;;;;5018181;28;19983;-79
2022/10/21 13:31:27;;;;;;;;;;;;;;;;;;4993613;28;19977;-79
2022/10/21 13:33:55;;;;;;;;;;;;;;;;;;4994858;28;19965;-79
2022/10/21 13:36:38;;;;;;;;;;;;;;;;;;4993944;28;20395;-79
2022/10/21 13:39:08;;;;;;;;;;;;;;;;;;4993346;28;19981;-78
2022/10/21 13:41:34;;;;;;;;;;;;;;;;;;4994153;28;19930;-78
2022/10/21 13:44:02;;;;;;;;;;;;;;;;;;4993873;28;19982;-78
2022/10/21 13:46:29;;;;;;;;;;;;;;;;;;4993946;28;20024;-78
2022/10/21 13:48:59;;;;;;;;;;;;;;;;;;4992959;28;20377;-78
2022/10/21 13:51:27;;;;;;;;;;;;;;;;;;4993181;28;19933;-79
2022/10/21 13:53:54;;;;;;;;;;;;;;;;;;4993060;28;20360;-78
2022/10/21 13:56:22;;;;;;;;;;;;;;;;;;4993422;28;20013;-79
2022/10/21 13:58:48;;;;;;;;;;;;;;;;;;4993596;28;20352;-79
2022/10/21 14:01:17;;;;;;;;;;;;;;;;;;4994519;28;19930;-78
2022/10/21 14:03:44;;;;;;;;;;;;;;;;;;5002090;28;19926;-77
2022/10/21 14:06:16;;;;;;;;;;;;;;;;;;5002376;28;19926;-78
2022/10/21 14:08:44;;;;;;;;;;;;;;;;;;5002424;28;19953;-78
2022/10/21 14:11:14;;;;;;;;;;;;;;;;;;5006242;28;20020;-77
2022/10/21 14:13:40;;;;;;;;;;;;;;;;;;5004549;28;19985;-78
2022/10/21 14:16:07;;;;;;;;;;;;;;;;;;5005476;28;20027;-78
2022/10/21 14:18:35;;;;;;;;;;;;;;;;;;5004520;28;19925;-77
2022/10/21 14:21:02;;;;;;;;;;;;;;;;;;5012218;28;19953;-79
2022/10/21 14:23:30;;;;;;;;;;;;;;;;;;5013258;28;19925;-79
2022/10/21 14:26:03;;;;;;;;;;;;;;;;;;5002516;28;19980;-80
2022/10/21 14:28:30;;;;;;;;;;;;;;;;;;5025633;28;20023;-78
2022/10/21 14:30:57;;;;;;;;;;;;;;;;;;5043864;28;20404;-77
2022/10/21 14:33:27;;;;;;;;;;;;;;;;;;5041310;28;19929;-77
2022/10/21 14:36:11;;;;;;;;;;;;;;;;;;5041898;28;19925;-78
2022/10/21 14:38:43;;;;;;;;;;;;;;;;;;5041561;28;20237;-77
2022/10/21 14:41:14;;;;;;;;;;;;;;;;;;5041728;28;19964;-77
2022/10/21 14:43:42;;;;;;;;;;;;;;;;;;5041210;28;20396;-77
2022/10/21 14:46:09;;;;;;;;;;;;;;;;;;5042318;28;20000;-78
2022/10/21 14:48:37;;;;;;;;;;;;;;;;;;5042279;28;19933;-78
2022/10/21 14:51:06;;;;;;;;;;;;;;;;;;5037152;28;19952;-79
2022/10/21 14:53:34;;;;;;;;;;;;;;;;;;5035726;28;19932;-79
2022/10/21 14:56:04;;;;;;;;;;;;;;;;;;5035821;28;20015;-79
2022/10/21 14:58:32;;;;;;;;;;;;;;;;;;5035450;28;19940;-78
2022/10/21 15:00:59;;;;;;;;;;;;;;;;;;5035668;28;19979;-78
2022/10/21 15:03:35;;;;;;;;;;;;;;;;;;5025341;28;19929;-78
2022/10/21 15:06:07;;;;;;;;;;;;;;;;;;5016651;28;19929;-79
2022/10/21 15:08:34;;;;;;;;;;;;;;;;;;5015031;28;20204;-78
2022/10/21 15:11:13;;;;;;;;;;;;;;;;;;5015648;28;19973;-78
2022/10/21 15:13:54;;;;;;;;;;;;;;;;;;5015720;28;19926;-78
2022/10/21 15:16:22;;;;;;;;;;;;;;;;;;5015507;28;19973;-77
2022/10/21 15:18:52;;;;;;;;;;;;;;;;;;5015850;28;19932;-78
2022/10/21 15:21:25;;;;;;;;;;;;;;;;;;5015053;28;20389;-78
2022/10/21 15:23:52;;;;;;;;;;;;;;;;;;5016773;28;19933;-78
2022/10/21 15:26:22;;;;;;;;;;;;;;;;;;5015775;28;19926;-78
2022/10/21 15:28:49;;;;;;;;;;;;;;;;;;5015422;28;19987;-78
2022/10/21 15:31:17;;;;;;;;;;;;;;;;;;5014742;28;20410;-78
2022/10/21 15:33:43;;;;;;;;;;;;;;;;;;5015561;28;19926;-78
2022/10/21 15:36:11;;;;;;;;;;;;;;;;;;5015492;28;19926;-77
2022/10/21 15:38:43;;;;;;;;;;;;;;;;;;5014913;28;19933;-78
2022/10/21 15:41:12;;;;;;;;;;;;;;;;;;5016219;28;20444;-78
2022/10/21 15:43:41;;;;;;;;;;;;;;;;;;5015464;28;20008;-78
2022/10/21 15:46:07;;;;;;;;;;;;;;;;;;5015044;28;19953;-78
2022/10/21 15:48:34;;;;;;;;;;;;;;;;;;5015699;28;19926;-78
2022/10/21 15:51:00;;;;;;;;;;;;;;;;;;5015376;28;20016;-79
2022/10/21 15:53:27;;;;;;;;;;;;;;;;;;5015399;28;20003;-78
2022/10/21 15:55:53;;;;;;;;;;;;;;;;;;5014845;28;20024;-78
2022/10/21 15:58:20;;;;;;;;;;;;;;;;;;5015031;28;19925;-78
2022/10/21 16:00:48;;;;;;;;;;;;;;;;;;5014926;28;20009;-78
2022/10/21 16:03:14;;;;;;;;;;;;;;;;;;5024580;28;19979;-78
2022/10/21 16:05:41;;;;;;;;;;;;;;;;;;5034481;28;20293;-79
2022/10/21 16:08:09;;;;;;;;;;;;;;;;;;5034372;28;19993;-78
2022/10/21 16:10:36;;;;;;;;;;;;;;;;;;5035725;28;19972;-78
2022/10/21 16:13:03;;;;;;;;;;;;;;;;;;5034871;28;20016;-79
2022/10/21 16:15:29;;;;;;;;;;;;;;;;;;5034725;28;19983;-78
2022/10/21 16:17:57;;;;;;;;;;;;;;;;;;5034858;28;19983;-78
2022/10/21 16:20:25;;;;;;;;;;;;;;;;;;5035285;28;20415;-79
2022/10/21 16:22:52;;;;;;;;;;;;;;;;;;5035141;28;19967;-79
2022/10/21 16:25:19;;;;;;;;;;;;;;;;;;5035075;28;19925;-79
2022/10/21 16:27:45;;;;;;;;;;;;;;;;;;5037087;28;19971;-78
2022/10/21 16:30:15;;;;;;;;;;;;;;;;;;5036739;28;19951;-78
2022/10/21 16:32:42;;;;;;;;;;;;;;;;;;5040083;28;19925;-78
2022/10/21 16:35:10;;;;;;;;;;;;;;;;;;5041095;28;19968;-79
2022/10/21 16:37:36;;;;;;;;;;;;;;;;;;5034801;28;19925;-79
2022/10/21 16:40:03;;;;;;;;;;;;;;;;;;5033981;28;19972;-78
2022/10/21 16:42:29;;;;;;;;;;;;;;;;;;5033676;28;19931;-78
2022/10/21 16:44:56;;;;;;;;;;;;;;;;;;5033652;28;19931;-78
2022/10/21 16:47:23;;;;;;;;;;;;;;;;;;5034147;28;20021;-78
2022/10/21 16:49:49;;;;;;;;;;;;;;;;;;5034874;28;20356;-79
2022/10/21 16:52:17;;;;;;;;;;;;;;;;;;5035711;28;20338;-81
2022/10/21 16:54:44;;;;;;;;;;;;;;;;;;5034924;28;19964;-78
2022/10/21 16:57:10;;;;;;;;;;;;;;;;;;5034067;28;19984;-78